createdAt,value
2018-12-06T00:00:52.650Z,-77
2018-12-06T00:03:20.792Z,-77
2018-12-06T00:05:49.702Z,-78
2018-12-06T00:08:19.176Z,-78
2018-12-06T00:10:47.728Z,-78
2018-12-06T00:13:15.940Z,-78
2018-12-06T00:15:44.187Z,-79
2018-12-06T00:18:12.316Z,-78
2018-12-06T00:20:40.488Z,-77
2018-12-06T00:23:08.789Z,-77
2018-12-06T00:25:37.018Z,-77
2018-12-06T00:28:05.156Z,-78
2018-12-06T00:30:39.428Z,-79
2018-12-06T00:33:07.957Z,-77
2018-12-06T00:35:36.251Z,-78
2018-12-06T00:38:04.607Z,-78
2018-12-06T00:40:32.834Z,-77
2018-12-06T00:43:01.163Z,-76
2018-12-06T00:45:29.340Z,-78
2018-12-06T00:47:57.795Z,-77
2018-12-06T00:50:25.960Z,-79
2018-12-06T00:52:54.190Z,-79
2018-12-06T00:55:22.422Z,-77
2018-12-06T00:57:50.648Z,-78
2018-12-06T01:00:18.992Z,-78
2018-12-06T01:02:47.355Z,-78
2018-12-06T01:05:15.826Z,-78
2018-12-06T01:07:44.537Z,-79
2018-12-06T01:10:13.424Z,-78
2018-12-06T01:12:42.021Z,-75
2018-12-06T01:15:10.371Z,-75
2018-12-06T01:17:38.705Z,-75
2018-12-06T01:20:08.534Z,-76
2018-12-06T01:22:36.686Z,-76
2018-12-06T01:25:06.317Z,-76
2018-12-06T01:27:34.569Z,-76
2018-12-06T01:30:03.568Z,-77
2018-12-06T01:32:32.166Z,-76
2018-12-06T01:35:00.524Z,-73
2018-12-06T01:37:28.705Z,-76
2018-12-06T01:39:57.084Z,-76
2018-12-06T01:42:25.255Z,-75
2018-12-06T01:44:53.569Z,-75
2018-12-06T01:47:21.926Z,-75
2018-12-06T01:49:50.161Z,-77
2018-12-06T01:52:18.491Z,-75
2018-12-06T01:54:46.852Z,-78
2018-12-06T01:57:15.219Z,-76
2018-12-06T01:59:43.597Z,-76
2018-12-06T02:02:11.775Z,-76
2018-12-06T02:04:39.910Z,-76
2018-12-06T02:07:08.108Z,-76
2018-12-06T02:09:36.432Z,-78
2018-12-06T02:12:04.821Z,-75
2018-12-06T02:14:32.951Z,-77
2018-12-06T02:17:01.504Z,-75
2018-12-06T02:19:29.636Z,-75
2018-12-06T02:21:57.799Z,-75
2018-12-06T02:24:26.575Z,-75
2018-12-06T02:26:54.707Z,-74
2018-12-06T02:29:25.069Z,-77
2018-12-06T02:31:53.324Z,-75
2018-12-06T02:34:21.469Z,-78
2018-12-06T02:36:49.739Z,-75
2018-12-06T02:39:18.057Z,-76
2018-12-06T02:41:46.473Z,-76
2018-12-06T02:44:14.754Z,-75
2018-12-06T02:46:43.154Z,-75
2018-12-06T02:49:11.291Z,-74
2018-12-06T02:51:39.447Z,-75
2018-12-06T02:54:07.906Z,-76
2018-12-06T02:56:36.073Z,-75
2018-12-06T02:59:04.421Z,-73
2018-12-06T03:01:32.561Z,-75
2018-12-06T03:04:00.733Z,-75
2018-12-06T03:06:28.884Z,-77
2018-12-06T03:08:57.011Z,-74
2018-12-06T03:11:25.347Z,-75
2018-12-06T03:13:53.463Z,-74
2018-12-06T03:16:21.781Z,-76
2018-12-06T03:18:50.290Z,-75
2018-12-06T03:21:19.600Z,-75
2018-12-06T03:23:47.895Z,-76
2018-12-06T03:26:16.010Z,-75
2018-12-06T03:28:44.326Z,-75
2018-12-06T03:31:12.596Z,-75
2018-12-06T03:33:41.082Z,-75
2018-12-06T03:36:09.252Z,-75
2018-12-06T03:38:37.410Z,-74
2018-12-06T03:41:06.287Z,-75
2018-12-06T03:43:34.435Z,-76
2018-12-06T03:46:02.731Z,-74
2018-12-06T03:48:31.612Z,-76
2018-12-06T03:50:59.834Z,-75
2018-12-06T03:53:28.939Z,-76
2018-12-06T03:55:57.317Z,-76
2018-12-06T03:58:25.455Z,-76
2018-12-06T04:00:53.671Z,-75
2018-12-06T04:03:21.936Z,-76
2018-12-06T04:05:50.420Z,-76
2018-12-06T04:08:18.515Z,-77
2018-12-06T04:10:46.915Z,-76
2018-12-06T04:13:15.246Z,-75
2018-12-06T04:15:43.364Z,-74
2018-12-06T04:18:11.527Z,-75
2018-12-06T04:20:39.972Z,-76
2018-12-06T04:23:08.065Z,-75
2018-12-06T04:25:36.402Z,-75
2018-12-06T04:28:04.562Z,-76
2018-12-06T04:30:32.981Z,-76
2018-12-06T04:33:01.138Z,-76
2018-12-06T04:35:29.350Z,-76
2018-12-06T04:37:57.505Z,-75
2018-12-06T04:40:25.841Z,-76
2018-12-06T04:42:54.048Z,-75
2018-12-06T04:45:22.346Z,-74
2018-12-06T04:47:50.571Z,-75
2018-12-06T04:50:18.723Z,-75
2018-12-06T04:52:47.162Z,-75
2018-12-06T04:55:15.488Z,-76
2018-12-06T04:57:43.965Z,-75
2018-12-06T05:00:12.311Z,-75
2018-12-06T05:02:40.499Z,-78
2018-12-06T05:05:09.003Z,-76
2018-12-06T05:07:37.329Z,-76
2018-12-06T05:10:06.054Z,-77
2018-12-06T05:12:34.403Z,-76
2018-12-06T05:15:02.672Z,-77
2018-12-06T05:17:31.154Z,-76
2018-12-06T05:19:59.323Z,-76
2018-12-06T05:22:27.671Z,-76
2018-12-06T05:24:56.342Z,-76
2018-12-06T05:27:25.319Z,-74
2018-12-06T05:29:53.485Z,-76
2018-12-06T05:32:21.876Z,-76
2018-12-06T05:34:50.070Z,-76
2018-12-06T05:37:18.221Z,-76
2018-12-06T05:39:46.647Z,-76
2018-12-06T05:42:14.947Z,-76
2018-12-06T05:44:43.480Z,-76
2018-12-06T05:47:11.797Z,-75
2018-12-06T05:49:40.031Z,-78
2018-12-06T05:52:08.181Z,-76
2018-12-06T05:54:36.351Z,-76
2018-12-06T05:57:04.663Z,-75
2018-12-06T05:59:33.201Z,-76
2018-12-06T06:02:02.203Z,-77
2018-12-06T06:04:30.338Z,-75
2018-12-06T06:07:01.157Z,-75
2018-12-06T06:09:30.310Z,-76
2018-12-06T06:11:58.610Z,-76
2018-12-06T06:14:26.805Z,-77
2018-12-06T06:16:55.117Z,-74
2018-12-06T06:19:23.375Z,-76
2018-12-06T06:21:51.633Z,-75
2018-12-06T06:24:19.844Z,-76
2018-12-06T06:26:48.223Z,-77
2018-12-06T06:29:16.573Z,-75
2018-12-06T06:31:59.496Z,-76
2018-12-06T06:34:27.623Z,-73
2018-12-06T06:36:56.024Z,-75
2018-12-06T06:39:24.242Z,-77
2018-12-06T06:41:52.547Z,-76
2018-12-06T06:44:20.741Z,-74
2018-12-06T06:46:49.086Z,-75
2018-12-06T06:49:17.250Z,-75
2018-12-06T06:51:45.488Z,-76
2018-12-06T06:54:13.769Z,-74
2018-12-06T06:56:41.971Z,-77
2018-12-06T06:59:10.130Z,-74
2018-12-06T07:01:38.310Z,-74
2018-12-06T07:04:06.439Z,-75
2018-12-06T07:06:34.742Z,-74
2018-12-06T07:09:05.168Z,-77
2018-12-06T07:11:33.305Z,-75
2018-12-06T07:14:01.582Z,-75
2018-12-06T07:16:29.987Z,-76
2018-12-06T07:18:58.203Z,-75
2018-12-06T07:21:26.389Z,-75
2018-12-06T07:23:54.585Z,-74
2018-12-06T07:26:26.334Z,-74
2018-12-06T07:28:55.171Z,-74
2018-12-06T07:31:23.367Z,-74
2018-12-06T07:33:51.968Z,-76
2018-12-06T07:36:20.137Z,-74
2018-12-06T07:38:48.331Z,-75
2018-12-06T07:41:16.515Z,-75
2018-12-06T07:43:44.692Z,-75
2018-12-06T07:46:12.912Z,-76
2018-12-06T07:48:41.141Z,-75
2018-12-06T07:51:09.513Z,-75
2018-12-06T07:53:37.668Z,-74
2018-12-06T07:56:05.903Z,-75
2018-12-06T07:58:39.243Z,-75
2018-12-06T08:01:07.425Z,-75
2018-12-06T08:03:38.348Z,-74
2018-12-06T08:06:06.623Z,-75
2018-12-06T08:08:36.185Z,-79
2018-12-06T08:11:04.650Z,-77
2018-12-06T08:13:39.607Z,-78
2018-12-06T08:16:07.824Z,-78
2018-12-06T08:18:36.039Z,-78
2018-12-06T08:21:11.711Z,-78
2018-12-06T08:23:41.021Z,-76
2018-12-06T08:26:14.735Z,-76
2018-12-06T08:28:44.231Z,-76
2018-12-06T08:31:12.741Z,-76
2018-12-06T08:33:44.317Z,-77
2018-12-06T08:36:12.540Z,-78
2018-12-06T08:38:42.436Z,-76
2018-12-06T08:41:10.672Z,-75
2018-12-06T08:43:39.092Z,-76
2018-12-06T08:46:07.734Z,-76
2018-12-06T08:48:36.355Z,-76
2018-12-06T08:51:04.765Z,-75
2018-12-06T08:53:33.001Z,-78
2018-12-06T08:56:01.401Z,-76
2018-12-06T08:58:34.396Z,-78
2018-12-06T09:01:02.634Z,-78
2018-12-06T09:03:30.829Z,-76
2018-12-06T09:05:59.096Z,-77
2018-12-06T09:08:27.344Z,-75
2018-12-06T09:10:56.036Z,-77
2018-12-06T09:13:24.292Z,-76
2018-12-06T09:15:52.842Z,-77
2018-12-06T09:18:21.662Z,-77
2018-12-06T09:20:50.348Z,-76
2018-12-06T09:23:18.808Z,-76
2018-12-06T09:25:48.809Z,-77
2018-12-06T09:28:19.424Z,-78
2018-12-06T09:30:48.289Z,-77
2018-12-06T09:33:16.464Z,-76
2018-12-06T09:35:45.460Z,-76
2018-12-06T09:38:14.787Z,-76
2018-12-06T09:40:43.334Z,-77
2018-12-06T09:43:11.596Z,-77
2018-12-06T09:45:43.776Z,-78
2018-12-06T09:48:11.955Z,-77
2018-12-06T09:50:41.924Z,-77
2018-12-06T09:53:10.832Z,-76
2018-12-06T09:55:39.453Z,-75
2018-12-06T09:58:08.628Z,-77
2018-12-06T10:00:36.824Z,-77
2018-12-06T10:03:05.212Z,-76
2018-12-06T10:05:33.437Z,-78
2018-12-06T10:08:01.765Z,-77
2018-12-06T10:10:30.115Z,-76
2018-12-06T10:12:58.305Z,-76
2018-12-06T10:15:26.610Z,-75
2018-12-06T10:17:55.556Z,-78
2018-12-06T10:20:23.705Z,-76
2018-12-06T10:22:51.949Z,-76
2018-12-06T10:25:20.327Z,-76
2018-12-06T10:27:48.796Z,-78
2018-12-06T10:30:19.118Z,-77
2018-12-06T10:32:47.850Z,-76
2018-12-06T10:35:17.884Z,-76
2018-12-06T10:37:46.512Z,-75
2018-12-06T10:40:15.493Z,-76
2018-12-06T10:42:44.290Z,-75
2018-12-06T10:45:13.375Z,-76
2018-12-06T10:47:41.751Z,-76
2018-12-06T10:50:10.162Z,-77
2018-12-06T10:52:43.068Z,-77
2018-12-06T10:55:11.412Z,-78
2018-12-06T10:57:39.858Z,-77
2018-12-06T11:00:16.140Z,-77
2018-12-06T11:02:48.701Z,-75
2018-12-06T11:05:17.532Z,-77
2018-12-06T11:07:45.877Z,-77
2018-12-06T11:10:14.145Z,-76
2018-12-06T11:12:42.866Z,-77
2018-12-06T11:15:11.246Z,-78
2018-12-06T11:17:43.645Z,-76
2018-12-06T11:20:11.865Z,-77
2018-12-06T11:22:41.299Z,-76
2018-12-06T11:25:14.058Z,-78
2018-12-06T11:27:42.475Z,-76
2018-12-06T11:30:11.493Z,-75
2018-12-06T11:32:39.935Z,-76
2018-12-06T11:35:08.309Z,-78
2018-12-06T11:37:36.727Z,-77
2018-12-06T11:40:05.653Z,-77
2018-12-06T11:42:38.413Z,-76
2018-12-06T11:45:08.334Z,-75
2018-12-06T11:47:36.992Z,-77
2018-12-06T11:50:06.899Z,-77
2018-12-06T11:52:35.331Z,-77
2018-12-06T11:55:03.706Z,-78
2018-12-06T11:57:32.059Z,-78
2018-12-06T12:00:00.401Z,-77
2018-12-06T12:02:33.434Z,-76
2018-12-06T12:05:01.599Z,-76
2018-12-06T12:07:29.781Z,-76
2018-12-06T12:09:57.933Z,-76
2018-12-06T12:12:29.038Z,-79
2018-12-06T12:14:57.251Z,-76
2018-12-06T12:17:25.748Z,-76
2018-12-06T12:19:54.104Z,-78
2018-12-06T12:22:22.304Z,-77
2018-12-06T12:24:50.553Z,-77
2018-12-06T12:27:18.801Z,-78
2018-12-06T12:29:47.268Z,-77
2018-12-06T12:32:15.468Z,-79
2018-12-06T12:34:43.717Z,-78
2018-12-06T12:37:12.556Z,-77
2018-12-06T12:39:40.908Z,-79
2018-12-06T12:42:09.652Z,-77
2018-12-06T12:44:37.884Z,-76
2018-12-06T12:47:11.642Z,-77
2018-12-06T12:49:39.925Z,-78
2018-12-06T12:52:08.145Z,-77
2018-12-06T12:54:42.002Z,-77
2018-12-06T12:59:59.675Z,-87
2018-12-06T13:02:28.789Z,-86
2018-12-06T13:04:57.705Z,-87
2018-12-06T13:07:27.374Z,-88
2018-12-06T13:10:03.935Z,-85
2018-12-06T13:12:33.446Z,-86
2018-12-06T13:15:01.981Z,-85
2018-12-06T13:17:30.842Z,-87
2018-12-06T13:19:59.491Z,-86
2018-12-06T13:22:29.989Z,-86
2018-12-06T13:24:59.642Z,-86
2018-12-06T13:27:28.385Z,-87
2018-12-06T13:29:56.710Z,-87
2018-12-06T13:32:29.301Z,-88
2018-12-06T13:35:11.107Z,-85
2018-12-06T13:37:40.715Z,-86
2018-12-06T13:40:09.700Z,-88
2018-12-06T13:42:38.141Z,-86
2018-12-06T13:45:08.675Z,-87
2018-12-06T13:47:37.377Z,-87
2018-12-06T13:50:06.271Z,-86
2018-12-06T13:52:34.905Z,-86
2018-12-06T13:55:03.705Z,-86
2018-12-06T13:57:33.121Z,-86
2018-12-06T14:00:01.855Z,-88
2018-12-06T14:02:30.207Z,-86
2018-12-06T14:04:58.556Z,-87
2018-12-06T14:07:30.860Z,-87
2018-12-06T14:10:02.864Z,-87
2018-12-06T14:12:31.486Z,-87
2018-12-06T14:15:00.062Z,-86
2018-12-06T14:17:33.136Z,-90
2018-12-06T14:20:01.778Z,-87
2018-12-06T14:22:31.996Z,-86
2018-12-06T14:25:01.296Z,-86
2018-12-06T14:27:29.787Z,-86
2018-12-06T14:29:59.899Z,-87
2018-12-06T14:32:28.341Z,-87
2018-12-06T14:35:00.468Z,-87
2018-12-06T14:37:31.732Z,-88
2018-12-06T14:40:08.760Z,-87
2018-12-06T14:45:30.902Z,-76
2018-12-06T14:47:59.094Z,-78
2018-12-06T14:50:29.628Z,-75
2018-12-06T14:52:57.883Z,-75
2018-12-06T14:55:26.092Z,-78
2018-12-06T14:57:54.306Z,-78
2018-12-06T15:00:22.653Z,-76
2018-12-06T15:02:50.843Z,-77
2018-12-06T15:05:20.277Z,-76
2018-12-06T15:07:50.858Z,-76
2018-12-06T15:10:19.199Z,-77
2018-12-06T15:12:47.374Z,-76
2018-12-06T15:15:16.593Z,-77
2018-12-06T15:17:44.855Z,-76
2018-12-06T15:20:13.192Z,-76
2018-12-06T15:22:43.861Z,-77
2018-12-06T15:25:13.179Z,-77
2018-12-06T15:27:41.490Z,-76
2018-12-06T15:30:10.393Z,-77
2018-12-06T15:32:38.787Z,-77
2018-12-06T15:35:08.328Z,-77
2018-12-06T15:37:37.199Z,-76
2018-12-06T15:40:06.327Z,-78
2018-12-06T15:42:34.469Z,-78
2018-12-06T15:45:02.886Z,-78
2018-12-06T15:47:31.510Z,-77
2018-12-06T15:49:59.731Z,-77
2018-12-06T15:52:27.933Z,-78
2018-12-06T15:54:56.363Z,-77
2018-12-06T15:57:25.428Z,-78
2018-12-06T15:59:53.717Z,-78
2018-12-06T16:02:24.420Z,-78
2018-12-06T16:04:52.617Z,-78
2018-12-06T16:07:20.817Z,-77
2018-12-06T16:09:49.121Z,-77
2018-12-06T16:12:17.824Z,-78
2018-12-06T16:14:46.299Z,-79
2018-12-06T16:17:14.488Z,-76
2018-12-06T16:19:42.702Z,-77
2018-12-06T16:22:10.883Z,-77
2018-12-06T16:24:39.086Z,-77
2018-12-06T16:27:07.303Z,-76
2018-12-06T16:29:36.237Z,-76
2018-12-06T16:32:04.497Z,-78
2018-12-06T16:34:32.814Z,-78
2018-12-06T16:37:01.428Z,-77
2018-12-06T16:39:29.774Z,-77
2018-12-06T16:41:57.980Z,-77
2018-12-06T16:44:26.204Z,-81
2018-12-06T16:46:54.423Z,-80
2018-12-06T16:49:22.693Z,-81
2018-12-06T16:51:55.422Z,-80
2018-12-06T16:54:23.660Z,-80
2018-12-06T16:56:51.842Z,-79
2018-12-06T16:59:20.043Z,-80
2018-12-06T17:01:48.328Z,-82
2018-12-06T17:04:16.600Z,-80
2018-12-06T17:06:44.831Z,-82
2018-12-06T17:09:13.049Z,-81
2018-12-06T17:11:41.603Z,-82
2018-12-06T17:14:10.661Z,-78
2018-12-06T17:16:39.898Z,-79
2018-12-06T17:19:08.142Z,-79
2018-12-06T17:21:37.222Z,-78
2018-12-06T17:24:05.466Z,-78
2018-12-06T17:26:33.657Z,-78
2018-12-06T17:29:02.939Z,-78
2018-12-06T17:31:31.318Z,-78
2018-12-06T17:33:59.861Z,-79
2018-12-06T17:36:28.753Z,-78
2018-12-06T17:38:56.981Z,-76
2018-12-06T17:41:25.249Z,-79
2018-12-06T17:43:53.675Z,-78
2018-12-06T17:46:23.287Z,-79
2018-12-06T17:48:51.932Z,-79
2018-12-06T17:51:20.145Z,-78
2018-12-06T17:53:52.377Z,-78
2018-12-06T17:56:19.809Z,-77
2018-12-06T17:58:48.974Z,-78
2018-12-06T18:01:17.230Z,-76
2018-12-06T18:03:45.481Z,-76
2018-12-06T18:06:13.694Z,-77
2018-12-06T18:08:41.979Z,-76
2018-12-06T18:11:10.476Z,-77
2018-12-06T18:13:39.001Z,-77
2018-12-06T18:16:07.535Z,-78
2018-12-06T18:18:40.315Z,-78
2018-12-06T18:21:08.243Z,-80
2018-12-06T18:23:36.750Z,-79
2018-12-06T18:26:05.052Z,-80
2018-12-06T18:28:33.342Z,-81
2018-12-06T18:31:01.620Z,-81
2018-12-06T18:33:30.004Z,-79
2018-12-06T18:35:59.224Z,-82
2018-12-06T18:38:27.863Z,-80
2018-12-06T18:40:58.280Z,-80
2018-12-06T18:43:26.639Z,-80
2018-12-06T18:45:55.730Z,-80
2018-12-06T18:48:24.058Z,-81
2018-12-06T18:50:53.108Z,-80
2018-12-06T18:53:21.681Z,-80
2018-12-06T18:55:50.003Z,-80
2018-12-06T18:58:18.290Z,-82
2018-12-06T19:00:46.560Z,-80
2018-12-06T19:03:14.901Z,-81
2018-12-06T19:05:43.380Z,-83
2018-12-06T19:08:13.293Z,-81
2018-12-06T19:10:41.664Z,-80
2018-12-06T19:13:10.064Z,-83
2018-12-06T19:15:38.357Z,-82
2018-12-06T19:18:06.742Z,-79
2018-12-06T19:20:45.482Z,-79
2018-12-06T19:23:13.840Z,-81
2018-12-06T19:25:42.167Z,-81
2018-12-06T19:28:11.801Z,-81
2018-12-06T19:30:40.054Z,-79
2018-12-06T19:33:08.149Z,-80
2018-12-06T19:35:36.502Z,-80
2018-12-06T19:38:05.503Z,-79
2018-12-06T19:40:34.587Z,-80
2018-12-06T19:43:02.895Z,-82
2018-12-06T19:45:31.190Z,-80
2018-12-06T19:47:59.444Z,-80
2018-12-06T19:50:27.623Z,-79
2018-12-06T19:52:57.157Z,-80
2018-12-06T19:55:26.193Z,-83
2018-12-06T19:57:54.522Z,-80
2018-12-06T20:00:22.821Z,-80
2018-12-06T20:02:51.138Z,-82
2018-12-06T20:05:19.521Z,-80
2018-12-06T20:07:47.754Z,-80
2018-12-06T20:10:16.126Z,-80
2018-12-06T20:12:44.450Z,-82
2018-12-06T20:15:12.964Z,-81
2018-12-06T20:17:41.225Z,-81
2018-12-06T20:20:10.309Z,-81
2018-12-06T20:22:39.004Z,-81
2018-12-06T20:25:07.563Z,-81
2018-12-06T20:27:36.444Z,-80
2018-12-06T20:30:05.855Z,-79
2018-12-06T20:32:34.228Z,-80
2018-12-06T20:35:04.479Z,-81
2018-12-06T20:37:36.004Z,-81
2018-12-06T20:40:05.268Z,-82
2018-12-06T20:42:33.886Z,-83
2018-12-06T20:45:02.274Z,-80
2018-12-06T20:47:30.962Z,-80
2018-12-06T20:49:59.398Z,-81
2018-12-06T20:52:30.865Z,-82
2018-12-06T20:54:59.148Z,-80
2018-12-06T20:57:27.482Z,-80
2018-12-06T20:59:57.356Z,-80
2018-12-06T21:02:25.975Z,-79
2018-12-06T21:04:54.302Z,-81
2018-12-06T21:07:23.294Z,-81
2018-12-06T21:09:52.066Z,-79
2018-12-06T21:12:20.417Z,-81
2018-12-06T21:14:48.644Z,-80
2018-12-06T21:17:16.950Z,-79
2018-12-06T21:19:45.314Z,-79
2018-12-06T21:22:13.686Z,-81
2018-12-06T21:24:41.973Z,-81
2018-12-06T21:27:10.183Z,-80
2018-12-06T21:29:38.483Z,-81
2018-12-06T21:32:07.614Z,-82
2018-12-06T21:34:35.861Z,-80
2018-12-06T21:37:04.189Z,-80
2018-12-06T21:39:33.364Z,-81
2018-12-06T21:42:01.618Z,-81
2018-12-06T21:44:30.029Z,-81
2018-12-06T21:46:58.375Z,-80
2018-12-06T21:49:26.654Z,-78
2018-12-06T21:51:55.247Z,-81
2018-12-06T21:54:23.534Z,-81
2018-12-06T21:56:51.807Z,-81
2018-12-06T21:59:20.985Z,-78
2018-12-06T22:01:51.909Z,-79
2018-12-06T22:04:20.204Z,-81
2018-12-06T22:06:49.119Z,-81
2018-12-06T22:09:17.496Z,-79
2018-12-06T22:11:45.748Z,-78
2018-12-06T22:14:14.163Z,-79
2018-12-06T22:16:42.658Z,-79
2018-12-06T22:19:11.663Z,-80
2018-12-06T22:21:40.009Z,-80
2018-12-06T22:24:08.276Z,-80
2018-12-06T22:26:36.595Z,-81
2018-12-06T22:29:05.088Z,-80
2018-12-06T22:31:33.399Z,-79
2018-12-06T22:34:01.696Z,-80
2018-12-06T22:36:29.921Z,-80
2018-12-06T22:38:58.179Z,-79
2018-12-06T22:41:26.447Z,-80
2018-12-06T22:43:54.671Z,-80
2018-12-06T22:46:23.025Z,-80
2018-12-06T22:48:51.278Z,-80
2018-12-06T22:51:24.233Z,-80
2018-12-06T22:53:49.825Z,-82
2018-12-06T22:56:18.109Z,-80
2018-12-06T22:58:46.423Z,-82
2018-12-06T23:01:17.235Z,-81
2018-12-06T23:03:45.431Z,-80
2018-12-06T23:06:14.008Z,-80
2018-12-06T23:08:42.179Z,-80
2018-12-06T23:11:10.425Z,-79
2018-12-06T23:13:39.355Z,-80
2018-12-06T23:16:08.956Z,-80
2018-12-06T23:18:37.107Z,-74
2018-12-06T23:21:05.283Z,-76
2018-12-06T23:23:33.709Z,-74
2018-12-06T23:26:02.102Z,-76
2018-12-06T23:28:30.404Z,-73
2018-12-06T23:30:58.523Z,-74
2018-12-06T23:33:31.902Z,-75
2018-12-06T23:35:57.033Z,-75
2018-12-06T23:38:25.448Z,-75
2018-12-06T23:40:53.655Z,-75
2018-12-06T23:43:21.967Z,-74
2018-12-06T23:45:50.296Z,-75
2018-12-06T23:48:18.458Z,-75
2018-12-06T23:50:46.653Z,-75
2018-12-06T23:53:14.851Z,-75
2018-12-06T23:55:43.009Z,-77
2018-12-06T23:58:11.188Z,-75
